Shelter Cove, California
Current Conditions -  °F | °C
As of 8:10 AM on Friday 24 Oct 2014 (Local Time) from KFOT Reporting Station
Overcast Overcast  
Wind Chill: 59°   Ceiling: 3500
Heat Index: 59°   Visibility: 10mi
Dew Point: 55°   Wind: 15mph
Humidity: 88%   Direction: 120°ESE
Pressure: 29.86"   Gusts: 21mph
Location:  40.03°N, 124.07°W
Report Text: KFOT 241510Z AUTO 12013G18KT 10SM BKN035 OVC042 15/13 A2986 RMK AO1
Loading
Personal Weather Stations






























Interactive Weather Map
Tropical Storm Tracking
New forecast layout! Learn more

10-Day Weather Forecast

Advertisements
Track Severe Weather on mobile